sensor_id;sensor_type;location;lat;lon;timestamp;pressure;altitude;pressure_sealevel;temperature;humidity
79198;BME280;68628;48.714;9.472;2023-05-16T00:00:19;97756.47;;;9.96;81.33
79198;BME280;68628;48.714;9.472;2023-05-16T00:02:45;97755.41;;;9.90;82.16
79198;BME280;68628;48.714;9.472;2023-05-16T00:05:12;97754.50;;;9.83;82.69
79198;BME280;68628;48.714;9.472;2023-05-16T00:07:42;97748.69;;;9.73;83.16
79198;BME280;68628;48.714;9.472;2023-05-16T00:10:09;97758.66;;;9.62;83.38
79198;BME280;68628;48.714;9.472;2023-05-16T00:12:36;97753.47;;;9.54;83.21
79198;BME280;68628;48.714;9.472;2023-05-16T00:15:07;97750.28;;;9.59;82.84
79198;BME280;68628;48.714;9.472;2023-05-16T00:17:34;97755.03;;;9.63;82.52
79198;BME280;68628;48.714;9.472;2023-05-16T00:20:01;97759.31;;;9.64;81.77
79198;BME280;68628;48.714;9.472;2023-05-16T00:22:32;97749.78;;;9.63;83.05
79198;BME280;68628;48.714;9.472;2023-05-16T00:24:58;97753.66;;;9.53;82.86
79198;BME280;68628;48.714;9.472;2023-05-16T00:27:24;97737.69;;;9.54;82.03
79198;BME280;68628;48.714;9.472;2023-05-16T00:29:49;97747.03;;;9.57;82.51
79198;BME280;68628;48.714;9.472;2023-05-16T00:32:16;97742.59;;;9.57;81.80
79198;BME280;68628;48.714;9.472;2023-05-16T00:34:42;97736.88;;;9.54;81.84
79198;BME280;68628;48.714;9.472;2023-05-16T00:37:08;97746.59;;;9.53;82.01
79198;BME280;68628;48.714;9.472;2023-05-16T00:39:34;97737.88;;;9.53;81.60
79198;BME280;68628;48.714;9.472;2023-05-16T00:41:59;97738.78;;;9.45;82.39
79198;BME280;68628;48.714;9.472;2023-05-16T00:44:25;97729.44;;;9.42;82.50
79198;BME280;68628;48.714;9.472;2023-05-16T00:46:53;97729.63;;;9.41;82.03
79198;BME280;68628;48.714;9.472;2023-05-16T00:49:18;97728.41;;;9.28;82.94
79198;BME280;68628;48.714;9.472;2023-05-16T00:51:45;97731.22;;;9.27;82.81
79198;BME280;68628;48.714;9.472;2023-05-16T00:54:11;97736.25;;;9.13;83.34
79198;BME280;68628;48.714;9.472;2023-05-16T00:56:36;97736.34;;;8.82;84.39
79198;BME280;68628;48.714;9.472;2023-05-16T00:59:02;97734.53;;;8.59;86.05
79198;BME280;68628;48.714;9.472;2023-05-16T01:01:29;97729.16;;;8.53;85.65
79198;BME280;68628;48.714;9.472;2023-05-16T01:03:55;97734.28;;;8.69;85.38
79198;BME280;68628;48.714;9.472;2023-05-16T01:06:20;97729.28;;;8.82;85.00
79198;BME280;68628;48.714;9.472;2023-05-16T01:08:46;97729.94;;;8.99;84.74
79198;BME280;68628;48.714;9.472;2023-05-16T01:11:33;97731.81;;;9.14;83.85
79198;BME280;68628;48.714;9.472;2023-05-16T01:17:06;97727.22;;;9.16;84.14
79198;BME280;68628;48.714;9.472;2023-05-16T01:25:30;97728.06;;;8.93;84.04
79198;BME280;68628;48.714;9.472;2023-05-16T01:28:08;97731.88;;;9.06;83.22
79198;BME280;68628;48.714;9.472;2023-05-16T01:30:39;97724.00;;;9.06;82.94
79198;BME280;68628;48.714;9.472;2023-05-16T01:33:06;97726.44;;;9.07;82.87
79198;BME280;68628;48.714;9.472;2023-05-16T01:35:42;97723.38;;;9.04;82.79
79198;BME280;68628;48.714;9.472;2023-05-16T01:38:34;97725.00;;;9.05;82.71
79198;BME280;68628;48.714;9.472;2023-05-16T01:43:51;97734.88;;;9.03;82.87
79198;BME280;68628;48.714;9.472;2023-05-16T01:46:24;97734.47;;;8.91;83.46
79198;BME280;68628;48.714;9.472;2023-05-16T01:51:54;97736.75;;;8.71;83.34
79198;BME280;68628;48.714;9.472;2023-05-16T01:54:30;97740.94;;;8.57;83.97
79198;BME280;68628;48.714;9.472;2023-05-16T01:56:59;97747.59;;;8.67;83.72
79198;BME280;68628;48.714;9.472;2023-05-16T01:59:28;97740.59;;;8.83;83.01
79198;BME280;68628;48.714;9.472;2023-05-16T02:01:57;97743.88;;;8.85;82.92
79198;BME280;68628;48.714;9.472;2023-05-16T02:04:23;97739.94;;;8.81;83.23
79198;BME280;68628;48.714;9.472;2023-05-16T02:06:50;97738.63;;;8.85;82.67
79198;BME280;68628;48.714;9.472;2023-05-16T02:09:16;97740.72;;;8.90;83.21
79198;BME280;68628;48.714;9.472;2023-05-16T02:11:42;97734.66;;;8.89;82.52
79198;BME280;68628;48.714;9.472;2023-05-16T02:14:07;97734.44;;;8.76;83.57
79198;BME280;68628;48.714;9.472;2023-05-16T02:16:34;97736.34;;;8.82;83.33
79198;BME280;68628;48.714;9.472;2023-05-16T02:18:59;97732.59;;;8.76;83.16
79198;BME280;68628;48.714;9.472;2023-05-16T02:21:25;97732.19;;;8.64;82.94
79198;BME280;68628;48.714;9.472;2023-05-16T02:23:51;97735.31;;;8.60;83.26
79198;BME280;68628;48.714;9.472;2023-05-16T02:26:16;97742.34;;;8.67;83.11
79198;BME280;68628;48.714;9.472;2023-05-16T02:28:42;97743.38;;;8.58;83.67
79198;BME280;68628;48.714;9.472;2023-05-16T02:31:08;97742.16;;;8.69;82.84
79198;BME280;68628;48.714;9.472;2023-05-16T02:33:33;97740.69;;;8.66;82.99
79198;BME280;68628;48.714;9.472;2023-05-16T02:35:59;97742.56;;;8.81;82.73
79198;BME280;68628;48.714;9.472;2023-05-16T02:38:25;97742.34;;;8.91;82.91
79198;BME280;68628;48.714;9.472;2023-05-16T02:40:50;97737.63;;;8.86;83.22
79198;BME280;68628;48.714;9.472;2023-05-16T02:43:16;97741.59;;;9.05;82.01
79198;BME280;68628;48.714;9.472;2023-05-16T02:45:42;97739.94;;;8.81;82.77
79198;BME280;68628;48.714;9.472;2023-05-16T02:48:08;97736.41;;;8.74;83.79
79198;BME280;68628;48.714;9.472;2023-05-16T02:50:34;97739.31;;;8.79;82.74
79198;BME280;68628;48.714;9.472;2023-05-16T02:53:00;97740.91;;;8.88;83.93
79198;BME280;68628;48.714;9.472;2023-05-16T02:55:29;97737.78;;;8.84;83.71
79198;BME280;68628;48.714;9.472;2023-05-16T02:57:55;97736.75;;;8.94;82.84
79198;BME280;68628;48.714;9.472;2023-05-16T03:00:21;97743.47;;;8.96;83.31
79198;BME280;68628;48.714;9.472;2023-05-16T03:02:47;97747.94;;;8.88;82.22
79198;BME280;68628;48.714;9.472;2023-05-16T03:05:13;97742.25;;;8.84;83.87
79198;BME280;68628;48.714;9.472;2023-05-16T03:07:39;97745.91;;;8.75;84.21
79198;BME280;68628;48.714;9.472;2023-05-16T03:10:05;97742.69;;;8.88;83.96
79198;BME280;68628;48.714;9.472;2023-05-16T03:12:31;97745.28;;;8.96;83.57
79198;BME280;68628;48.714;9.472;2023-05-16T03:14:57;97743.38;;;9.05;83.45
79198;BME280;68628;48.714;9.472;2023-05-16T03:17:22;97745.25;;;9.19;83.30
79198;BME280;68628;48.714;9.472;2023-05-16T03:19:50;97755.59;;;8.97;84.58
79198;BME280;68628;48.714;9.472;2023-05-16T03:22:15;97756.94;;;9.16;84.05
79198;BME280;68628;48.714;9.472;2023-05-16T03:24:41;97759.16;;;9.05;83.67
79198;BME280;68628;48.714;9.472;2023-05-16T03:27:07;97756.94;;;9.16;83.88
79198;BME280;68628;48.714;9.472;2023-05-16T03:29:32;97756.22;;;9.23;83.56
79198;BME280;68628;48.714;9.472;2023-05-16T03:31:58;97752.56;;;9.09;84.10
79198;BME280;68628;48.714;9.472;2023-05-16T03:34:23;97754.13;;;9.18;84.75
79198;BME280;68628;48.714;9.472;2023-05-16T03:36:49;97753.44;;;9.39;84.19
79198;BME280;68628;48.714;9.472;2023-05-16T03:39:16;97746.72;;;9.37;83.54
79198;BME280;68628;48.714;9.472;2023-05-16T03:41:43;97750.19;;;9.37;83.33
79198;BME280;68628;48.714;9.472;2023-05-16T03:44:08;97744.38;;;9.42;84.04
79198;BME280;68628;48.714;9.472;2023-05-16T03:46:35;97751.38;;;9.49;83.89
79198;BME280;68628;48.714;9.472;2023-05-16T03:49:01;97742.41;;;9.44;83.26
79198;BME280;68628;48.714;9.472;2023-05-16T03:51:27;97756.72;;;9.56;83.41
79198;BME280;68628;48.714;9.472;2023-05-16T03:53:53;97751.81;;;9.38;82.82
79198;BME280;68628;48.714;9.472;2023-05-16T03:56:18;97765.19;;;9.52;82.94
79198;BME280;68628;48.714;9.472;2023-05-16T03:58:46;97769.22;;;9.39;82.75
79198;BME280;68628;48.714;9.472;2023-05-16T04:01:12;97766.63;;;9.16;83.89
79198;BME280;68628;48.714;9.472;2023-05-16T04:03:38;97773.81;;;8.99;84.34
79198;BME280;68628;48.714;9.472;2023-05-16T04:06:04;97774.56;;;8.84;84.36
79198;BME280;68628;48.714;9.472;2023-05-16T04:08:31;97773.34;;;8.95;84.77
79198;BME280;68628;48.714;9.472;2023-05-16T04:10:56;97776.94;;;9.03;84.53
79198;BME280;68628;48.714;9.472;2023-05-16T04:13:22;97770.91;;;9.17;84.33
79198;BME280;68628;48.714;9.472;2023-05-16T04:15:47;97777.50;;;9.13;84.59
79198;BME280;68628;48.714;9.472;2023-05-16T04:18:13;97774.84;;;9.36;84.79
79198;BME280;68628;48.714;9.472;2023-05-16T04:20:41;97771.91;;;9.54;84.67
79198;BME280;68628;48.714;9.472;2023-05-16T04:23:07;97776.78;;;9.57;84.00
79198;BME280;68628;48.714;9.472;2023-05-16T04:25:36;97771.53;;;9.72;83.08
79198;BME280;68628;48.714;9.472;2023-05-16T04:28:01;97781.91;;;9.74;83.08
79198;BME280;68628;48.714;9.472;2023-05-16T04:30:27;97773.81;;;9.75;83.64
79198;BME280;68628;48.714;9.472;2023-05-16T04:32:53;97770.09;;;9.84;81.77
79198;BME280;68628;48.714;9.472;2023-05-16T04:35:18;97769.00;;;9.64;82.96
79198;BME280;68628;48.714;9.472;2023-05-16T04:37:44;97766.09;;;9.59;83.72
79198;BME280;68628;48.714;9.472;2023-05-16T04:40:10;97758.47;;;9.79;82.54
79198;BME280;68628;48.714;9.472;2023-05-16T04:42:37;97754.31;;;9.99;82.48
79198;BME280;68628;48.714;9.472;2023-05-16T04:45:03;97752.06;;;9.96;82.70
79198;BME280;68628;48.714;9.472;2023-05-16T04:47:31;97749.31;;;10.05;81.87
79198;BME280;68628;48.714;9.472;2023-05-16T04:49:56;97749.75;;;10.23;81.34
79198;BME280;68628;48.714;9.472;2023-05-16T04:52:22;97769.47;;;10.12;81.32
79198;BME280;68628;48.714;9.472;2023-05-16T04:54:50;97768.38;;;9.92;82.27
79198;BME280;68628;48.714;9.472;2023-05-16T04:57:16;97774.44;;;9.77;83.25
79198;BME280;68628;48.714;9.472;2023-05-16T04:59:42;97777.81;;;10.01;81.52
79198;BME280;68628;48.714;9.472;2023-05-16T05:02:08;97780.88;;;9.75;83.03
79198;BME280;68628;48.714;9.472;2023-05-16T05:04:34;97781.44;;;10.00;82.77
79198;BME280;68628;48.714;9.472;2023-05-16T05:07:00;97782.53;;;10.21;82.14
79198;BME280;68628;48.714;9.472;2023-05-16T05:09:25;97785.88;;;10.29;81.45
79198;BME280;68628;48.714;9.472;2023-05-16T05:11:51;97782.44;;;10.44;80.35
79198;BME280;68628;48.714;9.472;2023-05-16T05:14:17;97781.41;;;10.45;80.86
79198;BME280;68628;48.714;9.472;2023-05-16T05:16:42;97786.44;;;10.76;80.14
79198;BME280;68628;48.714;9.472;2023-05-16T05:19:08;97777.91;;;10.74;80.64
79198;BME280;68628;48.714;9.472;2023-05-16T05:21:34;97783.88;;;10.83;79.06
79198;BME280;68628;48.714;9.472;2023-05-16T05:23:59;97789.22;;;10.90;79.82
79198;BME280;68628;48.714;9.472;2023-05-16T05:26:25;97791.72;;;10.98;78.98
79198;BME280;68628;48.714;9.472;2023-05-16T05:28:51;97788.16;;;10.84;80.73
79198;BME280;68628;48.714;9.472;2023-05-16T05:31:16;97788.75;;;10.86;80.33
79198;BME280;68628;48.714;9.472;2023-05-16T05:33:42;97790.09;;;10.97;79.81
79198;BME280;68628;48.714;9.472;2023-05-16T05:36:07;97796.31;;;10.89;79.24
79198;BME280;68628;48.714;9.472;2023-05-16T05:38:33;97789.78;;;11.07;78.54
79198;BME280;68628;48.714;9.472;2023-05-16T05:40:59;97794.38;;;11.20;78.16
79198;BME280;68628;48.714;9.472;2023-05-16T05:43:25;97789.53;;;11.23;78.74
79198;BME280;68628;48.714;9.472;2023-05-16T05:45:51;97785.13;;;11.30;79.38
79198;BME280;68628;48.714;9.472;2023-05-16T05:48:17;97784.56;;;11.35;77.47
79198;BME280;68628;48.714;9.472;2023-05-16T05:50:42;97784.44;;;11.43;77.74
79198;BME280;68628;48.714;9.472;2023-05-16T05:53:08;97784.38;;;11.37;78.78
79198;BME280;68628;48.714;9.472;2023-05-16T05:55:34;97786.66;;;11.46;79.04
79198;BME280;68628;48.714;9.472;2023-05-16T05:57:59;97789.22;;;11.33;78.24
79198;BME280;68628;48.714;9.472;2023-05-16T06:00:25;97795.03;;;11.50;78.26
79198;BME280;68628;48.714;9.472;2023-05-16T06:02:51;97795.94;;;11.64;79.10
79198;BME280;68628;48.714;9.472;2023-05-16T06:05:16;97804.13;;;11.97;77.38
79198;BME280;68628;48.714;9.472;2023-05-16T06:07:42;97797.75;;;11.92;76.87
79198;BME280;68628;48.714;9.472;2023-05-16T06:10:07;97807.16;;;12.01;77.07
79198;BME280;68628;48.714;9.472;2023-05-16T06:12:33;97806.81;;;11.82;78.07
79198;BME280;68628;48.714;9.472;2023-05-16T06:14:59;97815.72;;;11.75;78.34
79198;BME280;68628;48.714;9.472;2023-05-16T06:17:24;97813.03;;;11.96;77.93
79198;BME280;68628;48.714;9.472;2023-05-16T06:19:50;97812.69;;;11.78;77.76
79198;BME280;68628;48.714;9.472;2023-05-16T06:22:16;97817.56;;;11.81;78.88
79198;BME280;68628;48.714;9.472;2023-05-16T06:24:41;97811.53;;;11.87;79.34
79198;BME280;68628;48.714;9.472;2023-05-16T06:27:07;97824.50;;;11.82;79.93
79198;BME280;68628;48.714;9.472;2023-05-16T06:29:33;97815.72;;;12.03;79.11
79198;BME280;68628;48.714;9.472;2023-05-16T06:31:58;97816.63;;;11.89;79.54
79198;BME280;68628;48.714;9.472;2023-05-16T06:34:24;97820.91;;;11.90;78.61
79198;BME280;68628;48.714;9.472;2023-05-16T06:36:55;97813.84;;;11.97;78.49
79198;BME280;68628;48.714;9.472;2023-05-16T06:39:21;97808.41;;;12.05;79.29
79198;BME280;68628;48.714;9.472;2023-05-16T06:41:46;97819.97;;;11.97;78.20
79198;BME280;68628;48.714;9.472;2023-05-16T06:44:12;97820.91;;;12.25;77.59
79198;BME280;68628;48.714;9.472;2023-05-16T06:46:38;97821.97;;;12.30;77.74
79198;BME280;68628;48.714;9.472;2023-05-16T06:49:03;97816.88;;;12.29;77.18
79198;BME280;68628;48.714;9.472;2023-05-16T06:51:29;97817.88;;;12.21;78.42
79198;BME280;68628;48.714;9.472;2023-05-16T06:53:56;97819.19;;;12.45;76.44
79198;BME280;68628;48.714;9.472;2023-05-16T06:56:22;97813.94;;;12.52;76.57
79198;BME280;68628;48.714;9.472;2023-05-16T06:58:48;97812.00;;;12.74;75.51
79198;BME280;68628;48.714;9.472;2023-05-16T07:01:14;97814.44;;;12.82;76.33
79198;BME280;68628;48.714;9.472;2023-05-16T07:03:40;97808.75;;;12.92;74.72
79198;BME280;68628;48.714;9.472;2023-05-16T07:06:06;97810.84;;;13.17;72.56
79198;BME280;68628;48.714;9.472;2023-05-16T07:08:32;97817.03;;;13.38;72.78
79198;BME280;68628;48.714;9.472;2023-05-16T07:11:00;97814.94;;;13.20;73.78
79198;BME280;68628;48.714;9.472;2023-05-16T07:13:25;97818.56;;;13.12;74.61
79198;BME280;68628;48.714;9.472;2023-05-16T07:15:51;97817.13;;;13.03;74.29
79198;BME280;68628;48.714;9.472;2023-05-16T07:18:17;97809.63;;;13.20;73.88
79198;BME280;68628;48.714;9.472;2023-05-16T07:20:43;97816.19;;;13.37;72.19
79198;BME280;68628;48.714;9.472;2023-05-16T07:23:08;97819.41;;;13.19;73.06
79198;BME280;68628;48.714;9.472;2023-05-16T07:25:34;97824.25;;;12.95;72.33
79198;BME280;68628;48.714;9.472;2023-05-16T07:28:01;97828.47;;;12.90;72.40
79198;BME280;68628;48.714;9.472;2023-05-16T07:30:26;97831.81;;;13.12;73.36
79198;BME280;68628;48.714;9.472;2023-05-16T07:32:53;97821.84;;;13.07;71.15
79198;BME280;68628;48.714;9.472;2023-05-16T07:35:18;97819.00;;;13.29;70.34
79198;BME280;68628;48.714;9.472;2023-05-16T07:37:44;97828.59;;;13.30;70.47
79198;BME280;68628;48.714;9.472;2023-05-16T07:40:10;97831.97;;;12.90;71.37
79198;BME280;68628;48.714;9.472;2023-05-16T07:42:36;97829.56;;;13.09;72.52
79198;BME280;68628;48.714;9.472;2023-05-16T07:45:02;97830.56;;;12.94;71.99
79198;BME280;68628;48.714;9.472;2023-05-16T07:47:28;97839.97;;;12.55;72.92
79198;BME280;68628;48.714;9.472;2023-05-16T07:49:54;97842.47;;;12.63;73.40
79198;BME280;68628;48.714;9.472;2023-05-16T07:52:20;97842.84;;;12.60;73.06
79198;BME280;68628;48.714;9.472;2023-05-16T07:54:46;97844.53;;;12.81;72.96
79198;BME280;68628;48.714;9.472;2023-05-16T07:57:15;97844.75;;;12.87;72.92
79198;BME280;68628;48.714;9.472;2023-05-16T07:59:41;97840.88;;;12.82;73.05
79198;BME280;68628;48.714;9.472;2023-05-16T08:02:09;97837.44;;;12.82;72.96
79198;BME280;68628;48.714;9.472;2023-05-16T08:04:35;97835.38;;;12.77;71.99
79198;BME280;68628;48.714;9.472;2023-05-16T08:07:02;97834.97;;;12.80;72.42
79198;BME280;68628;48.714;9.472;2023-05-16T08:09:27;97839.69;;;12.85;71.48
79198;BME280;68628;48.714;9.472;2023-05-16T08:11:53;97845.28;;;12.62;72.95
79198;BME280;68628;48.714;9.472;2023-05-16T08:14:19;97836.53;;;12.61;72.05
79198;BME280;68628;48.714;9.472;2023-05-16T08:16:44;97843.72;;;12.81;71.44
79198;BME280;68628;48.714;9.472;2023-05-16T08:19:10;97840.88;;;12.76;71.07
79198;BME280;68628;48.714;9.472;2023-05-16T08:21:36;97845.94;;;12.77;71.79
79198;BME280;68628;48.714;9.472;2023-05-16T08:24:02;97838.69;;;12.93;71.32
79198;BME280;68628;48.714;9.472;2023-05-16T08:26:29;97842.16;;;13.07;70.68
79198;BME280;68628;48.714;9.472;2023-05-16T08:28:55;97848.19;;;12.80;71.09
79198;BME280;68628;48.714;9.472;2023-05-16T08:31:21;97855.09;;;12.75;71.73
79198;BME280;68628;48.714;9.472;2023-05-16T08:33:46;97850.25;;;12.85;72.03
79198;BME280;68628;48.714;9.472;2023-05-16T08:36:12;97858.16;;;12.78;71.68
79198;BME280;68628;48.714;9.472;2023-05-16T08:38:40;97857.56;;;12.90;70.74
79198;BME280;68628;48.714;9.472;2023-05-16T08:41:05;97856.38;;;12.92;71.44
79198;BME280;68628;48.714;9.472;2023-05-16T08:43:32;97862.84;;;12.83;71.21
79198;BME280;68628;48.714;9.472;2023-05-16T08:45:59;97866.72;;;12.87;71.35
79198;BME280;68628;48.714;9.472;2023-05-16T08:48:27;97862.09;;;13.03;71.29
79198;BME280;68628;48.714;9.472;2023-05-16T08:50:53;97877.09;;;12.82;71.17
79198;BME280;68628;48.714;9.472;2023-05-16T08:53:21;97871.41;;;12.85;70.94
79198;BME280;68628;48.714;9.472;2023-05-16T08:55:55;97869.75;;;12.77;71.11
79198;BME280;68628;48.714;9.472;2023-05-16T08:58:22;97865.84;;;12.66;71.79
79198;BME280;68628;48.714;9.472;2023-05-16T09:00:49;97866.84;;;12.65;71.85
79198;BME280;68628;48.714;9.472;2023-05-16T09:03:16;97870.16;;;12.81;72.15
79198;BME280;68628;48.714;9.472;2023-05-16T09:05:42;97869.34;;;12.80;71.13
79198;BME280;68628;48.714;9.472;2023-05-16T09:08:07;97877.72;;;12.91;72.60
79198;BME280;68628;48.714;9.472;2023-05-16T09:10:33;97874.53;;;13.02;71.80
79198;BME280;68628;48.714;9.472;2023-05-16T09:12:58;97872.44;;;12.97;72.07
79198;BME280;68628;48.714;9.472;2023-05-16T09:15:31;97874.53;;;13.09;71.50
79198;BME280;68628;48.714;9.472;2023-05-16T09:17:59;97863.78;;;13.30;71.13
79198;BME280;68628;48.714;9.472;2023-05-16T09:20:26;97869.44;;;13.07;72.46
79198;BME280;68628;48.714;9.472;2023-05-16T09:22:57;97869.66;;;13.12;70.95
79198;BME280;68628;48.714;9.472;2023-05-16T09:25:30;97866.97;;;12.99;71.89
79198;BME280;68628;48.714;9.472;2023-05-16T09:27:58;97878.34;;;12.86;71.71
79198;BME280;68628;48.714;9.472;2023-05-16T09:30:30;97883.22;;;12.96;72.26
79198;BME280;68628;48.714;9.472;2023-05-16T09:32:58;97888.69;;;12.81;71.99
79198;BME280;68628;48.714;9.472;2023-05-16T09:35:24;97889.66;;;12.73;72.95
79198;BME280;68628;48.714;9.472;2023-05-16T09:37:50;97889.16;;;12.56;73.97
79198;BME280;68628;48.714;9.472;2023-05-16T09:40:22;97891.28;;;12.68;73.50
79198;BME280;68628;48.714;9.472;2023-05-16T09:43:03;97885.97;;;12.61;73.30
79198;BME280;68628;48.714;9.472;2023-05-16T09:45:31;97884.75;;;12.63;73.57
79198;BME280;68628;48.714;9.472;2023-05-16T09:48:08;97880.44;;;12.56;74.14
79198;BME280;68628;48.714;9.472;2023-05-16T09:50:37;97885.28;;;12.52;73.50
79198;BME280;68628;48.714;9.472;2023-05-16T09:53:03;97897.13;;;12.63;73.32
79198;BME280;68628;48.714;9.472;2023-05-16T09:55:31;97891.28;;;12.68;72.52
79198;BME280;68628;48.714;9.472;2023-05-16T09:57:56;97887.63;;;12.75;72.83
79198;BME280;68628;48.714;9.472;2023-05-16T10:00:28;97889.34;;;12.96;72.85
79198;BME280;68628;48.714;9.472;2023-05-16T10:02:56;97890.72;;;12.86;72.79
79198;BME280;68628;48.714;9.472;2023-05-16T10:05:25;97891.16;;;12.96;71.63
79198;BME280;68628;48.714;9.472;2023-05-16T10:07:54;97883.72;;;13.26;71.94
79198;BME280;68628;48.714;9.472;2023-05-16T10:10:22;97882.72;;;13.21;71.96
79198;BME280;68628;48.714;9.472;2023-05-16T10:12:50;97881.94;;;13.33;70.27
79198;BME280;68628;48.714;9.472;2023-05-16T10:15:17;97879.31;;;13.40;70.62
79198;BME280;68628;48.714;9.472;2023-05-16T10:17:49;97881.97;;;13.60;68.56
79198;BME280;68628;48.714;9.472;2023-05-16T10:20:19;97879.13;;;13.82;68.17
79198;BME280;68628;48.714;9.472;2023-05-16T10:22:52;97878.53;;;13.93;66.68
79198;BME280;68628;48.714;9.472;2023-05-16T10:25:32;97881.56;;;13.97;67.43
79198;BME280;68628;48.714;9.472;2023-05-16T10:28:03;97875.06;;;13.73;65.76
79198;BME280;68628;48.714;9.472;2023-05-16T10:30:32;97876.28;;;14.10;64.96
79198;BME280;68628;48.714;9.472;2023-05-16T10:33:00;97880.50;;;14.38;64.67
79198;BME280;68628;48.714;9.472;2023-05-16T10:35:26;97884.00;;;14.12;66.71
79198;BME280;68628;48.714;9.472;2023-05-16T10:37:53;97889.72;;;13.95;65.90
79198;BME280;68628;48.714;9.472;2023-05-16T10:40:21;97886.88;;;13.90;65.79
79198;BME280;68628;48.714;9.472;2023-05-16T10:42:59;97890.94;;;13.86;66.09
79198;BME280;68628;48.714;9.472;2023-05-16T10:45:26;97891.97;;;13.72;67.16
79198;BME280;68628;48.714;9.472;2023-05-16T10:47:57;97890.94;;;13.86;66.30
79198;BME280;68628;48.714;9.472;2023-05-16T10:50:32;97890.75;;;14.01;66.09
79198;BME280;68628;48.714;9.472;2023-05-16T10:53:18;97894.00;;;13.70;66.57
79198;BME280;68628;48.714;9.472;2023-05-16T11:01:18;97891.94;;;13.85;66.75
79198;BME280;68628;48.714;9.472;2023-05-16T11:06:28;97905.19;;;14.25;64.98
79198;BME280;68628;48.714;9.472;2023-05-16T11:14:25;97903.69;;;14.49;64.94
79198;BME280;68628;48.714;9.472;2023-05-16T11:19:48;97915.19;;;13.96;64.50
79198;BME280;68628;48.714;9.472;2023-05-16T11:32:36;97912.13;;;14.20;67.19
79198;BME280;68628;48.714;9.472;2023-05-16T11:35:08;97904.34;;;14.38;65.41
79198;BME280;68628;48.714;9.472;2023-05-16T11:37:37;97908.06;;;14.24;65.14
79198;BME280;68628;48.714;9.472;2023-05-16T11:40:07;97908.25;;;14.09;65.99
79198;BME280;68628;48.714;9.472;2023-05-16T11:42:41;97907.78;;;14.45;65.96
79198;BME280;68628;48.714;9.472;2023-05-16T11:45:18;97899.41;;;14.69;63.99
79198;BME280;68628;48.714;9.472;2023-05-16T11:47:46;97905.25;;;14.84;63.92
79198;BME280;68628;48.714;9.472;2023-05-16T11:50:15;97899.94;;;14.91;64.17
79198;BME280;68628;48.714;9.472;2023-05-16T11:52:46;97904.72;;;14.48;65.34
79198;BME280;68628;48.714;9.472;2023-05-16T11:55:29;97915.31;;;14.48;64.41
79198;BME280;68628;48.714;9.472;2023-05-16T11:57:58;97917.19;;;14.41;65.15
79198;BME280;68628;48.714;9.472;2023-05-16T12:00:26;97918.00;;;14.42;65.50
79198;BME280;68628;48.714;9.472;2023-05-16T12:03:01;97911.13;;;13.94;66.51
79198;BME280;68628;48.714;9.472;2023-05-16T12:05:29;97916.41;;;14.00;66.73
79198;BME280;68628;48.714;9.472;2023-05-16T12:07:56;97925.78;;;14.10;67.83
79198;BME280;68628;48.714;9.472;2023-05-16T12:10:24;97926.41;;;14.05;67.26
79198;BME280;68628;48.714;9.472;2023-05-16T12:12:51;97918.63;;;13.70;68.39
79198;BME280;68628;48.714;9.472;2023-05-16T12:15:18;97929.00;;;13.45;68.00
79198;BME280;68628;48.714;9.472;2023-05-16T12:17:45;97929.84;;;13.65;67.91
79198;BME280;68628;48.714;9.472;2023-05-16T12:20:14;97932.66;;;13.44;68.38
79198;BME280;68628;48.714;9.472;2023-05-16T12:22:41;97926.28;;;13.25;69.33
79198;BME280;68628;48.714;9.472;2023-05-16T12:25:28;97935.63;;;13.27;69.21
79198;BME280;68628;48.714;9.472;2023-05-16T12:28:03;97940.38;;;13.39;69.51
79198;BME280;68628;48.714;9.472;2023-05-16T12:30:31;97943.34;;;13.22;69.63
79198;BME280;68628;48.714;9.472;2023-05-16T12:33:11;97932.63;;;13.37;69.54
79198;BME280;68628;48.714;9.472;2023-05-16T12:35:41;97944.59;;;13.33;70.19
79198;BME280;68628;48.714;9.472;2023-05-16T12:38:10;97944.78;;;13.18;71.19
79198;BME280;68628;48.714;9.472;2023-05-16T12:40:38;97941.72;;;12.73;72.69
79198;BME280;68628;48.714;9.472;2023-05-16T12:43:31;97946.75;;;13.03;71.50
79198;BME280;68628;48.714;9.472;2023-05-16T12:45:57;97943.38;;;12.80;72.96
79198;BME280;68628;48.714;9.472;2023-05-16T12:48:30;97944.13;;;12.68;74.55
79198;BME280;68628;48.714;9.472;2023-05-16T12:51:10;97952.69;;;12.70;74.29
79198;BME280;68628;48.714;9.472;2023-05-16T12:53:46;97942.50;;;12.66;74.01
79198;BME280;68628;48.714;9.472;2023-05-16T12:56:14;97945.34;;;12.37;73.83
79198;BME280;68628;48.714;9.472;2023-05-16T12:58:40;97942.19;;;12.48;74.72
79198;BME280;68628;48.714;9.472;2023-05-16T13:01:07;97956.00;;;12.78;73.21
79198;BME280;68628;48.714;9.472;2023-05-16T13:03:33;97953.94;;;12.80;72.64
79198;BME280;68628;48.714;9.472;2023-05-16T13:06:01;97951.84;;;12.62;72.90
79198;BME280;68628;48.714;9.472;2023-05-16T13:08:28;97947.34;;;12.63;73.95
79198;BME280;68628;48.714;9.472;2023-05-16T13:10:55;97935.97;;;12.62;74.48
79198;BME280;68628;48.714;9.472;2023-05-16T13:13:21;97946.34;;;12.64;73.54
79198;BME280;68628;48.714;9.472;2023-05-16T13:15:47;97941.03;;;12.57;74.31
79198;BME280;68628;48.714;9.472;2023-05-16T13:18:13;97941.28;;;12.69;73.59
79198;BME280;68628;48.714;9.472;2023-05-16T13:20:39;97955.88;;;12.58;74.12
79198;BME280;68628;48.714;9.472;2023-05-16T13:23:05;97949.00;;;12.64;71.69
79198;BME280;68628;48.714;9.472;2023-05-16T13:25:32;97947.66;;;12.81;72.83
79198;BME280;68628;48.714;9.472;2023-05-16T13:27:58;97954.94;;;12.73;71.35
79198;BME280;68628;48.714;9.472;2023-05-16T13:30:23;97957.59;;;12.73;69.95
79198;BME280;68628;48.714;9.472;2023-05-16T13:32:49;97959.19;;;12.74;69.86
79198;BME280;68628;48.714;9.472;2023-05-16T13:35:17;97960.69;;;12.83;70.42
79198;BME280;68628;48.714;9.472;2023-05-16T13:37:43;97968.06;;;12.94;70.08
79198;BME280;68628;48.714;9.472;2023-05-16T13:40:09;97956.09;;;12.98;69.35
79198;BME280;68628;48.714;9.472;2023-05-16T13:42:35;97966.41;;;12.87;68.52
79198;BME280;68628;48.714;9.472;2023-05-16T13:45:02;97969.91;;;12.94;68.33
79198;BME280;68628;48.714;9.472;2023-05-16T13:47:28;97964.31;;;13.24;68.30